.
WxDataArchive / Data Records for 2007-02-11
2007-02-10 February 2007 2007-02-12

Data Records for Sunday, 11 February 2007

Time	Temp	Chill	HIndex	Humid	Dewpt	 Wind 	HiWind	WindDir	Rain 	Barom 
-----	----	-----	------	-----	-----	------	------	-------	-----	----- 
00:00	4.3	4.3	4.3	66	-4.5	1	5	270	0.00	30.274 
00:05	4.5	4.5	4.5	66	-4.3	2	10	270	0.00	30.273 
00:10	4.5	4.5	4.5	66	-4.3	2	10	270	0.00	30.269 
00:15	4.5	4.5	4.5	66	-4.3	2	9	248	0.00	30.267 
00:20	4.5	4.5	4.5	66	-4.3	1	3	248	0.00	30.268 
00:25	4.5	4.5	4.5	66	-4.3	1	6	248	0.00	30.266 
00:30	4.5	4.5	4.5	66	-4.3	1	5	248	0.00	30.265 
00:35	4.5	4.5	4.5	67	-4.0	1	6	248	0.00	30.265 
00:40	4.5	4.5	4.5	67	-4.0	1	4	248	0.00	30.265 
00:45	4.5	4.5	4.5	67	-4.0	1	5	248	0.00	30.261 
00:50	4.3	4.3	4.3	67	-4.2	0	3	248	0.00	30.260 
00:55	4.5	4.5	4.5	68	-3.7	1	5	248	0.00	30.258 
01:00	4.5	4.5	4.5	68	-3.7	1	4	315	0.00	30.256 
01:05	4.3	4.3	4.3	68	-3.9	0	3	248	0.00	30.253 
01:10	4.3	4.3	4.3	68	-3.9	1	3	270	0.00	30.251 
01:15	4.3	4.3	4.3	68	-3.9	0	1	248	0.00	30.252 
01:20	4.3	4.3	4.3	69	-3.6	1	3	248	0.00	30.251 
01:25	4.3	4.3	4.3	69	-3.6	0	2	248	0.00	30.248 
01:30	4.5	4.5	4.5	70	-3.1	1	4	248	0.00	30.244 
01:35	4.7	4.7	4.7	70	-2.9	0	3	248	0.00	30.243 
01:40	5.0	5.0	5.0	70	-2.6	1	4	248	0.00	30.242 
01:45	5.2	5.2	5.2	70	-2.4	2	6	248	0.00	30.239 
01:50	5.4	5.4	5.4	70	-2.2	1	4	248	0.00	30.239 
01:55	5.6	5.6	5.6	69	-2.3	1	3	248	0.00	30.241 
02:00	5.6	5.6	5.6	69	-2.3	1	5	248	0.00	30.241 
02:05	5.6	5.6	5.6	69	-2.3	1	4	248	0.00	30.238 
02:10	5.6	5.6	5.6	69	-2.3	1	4	248	0.00	30.237 
02:15	5.6	5.6	5.6	69	-2.3	0	3	248	0.00	30.235 
02:20	5.6	5.6	5.6	69	-2.3	0	2	225	0.00	30.235 
02:25	5.6	5.6	5.6	69	-2.3	1	3	248	0.00	30.237 
02:30	5.6	5.6	5.6	69	-2.3	0	3	248	0.00	30.236 
02:35	5.6	5.6	5.6	69	-2.3	1	2	248	0.00	30.234 
02:40	5.6	5.6	5.6	69	-2.3	1	5	248	0.00	30.233 
02:45	5.4	5.4	5.4	69	-2.5	1	4	248	0.00	30.235 
02:50	5.4	5.4	5.4	69	-2.5	1	4	248	0.00	30.237 
02:55	5.6	5.6	5.6	69	-2.3	1	5	248	0.00	30.234 
03:00	5.6	5.6	5.6	69	-2.3	1	3	248	0.00	30.238 
03:05	5.4	5.4	5.4	69	-2.5	1	4	248	0.00	30.239 
03:10	5.4	5.4	5.4	69	-2.5	0	4	248	0.00	30.237 
03:15	5.2	5.2	5.2	69	-2.7	1	4	248	0.00	30.237 
03:20	5.2	5.2	5.2	69	-2.7	1	3	248	0.00	30.237 
03:25	5.2	5.2	5.2	69	-2.7	1	4	248	0.00	30.232 
03:30	5.2	5.2	5.2	69	-2.7	1	3	248	0.00	30.229 
03:35	5.4	5.4	5.4	69	-2.5	1	3	248	0.00	30.228 
03:40	5.6	5.6	5.6	69	-2.3	1	5	248	0.00	30.228 
03:45	5.6	5.6	5.6	69	-2.3	1	4	248	0.00	30.226 
03:50	5.8	5.8	5.8	68	-2.4	2	9	248	0.00	30.227 
03:55	5.8	5.8	5.8	68	-2.4	2	6	270	0.00	30.226 
04:00	6.0	6.0	6.0	68	-2.3	2	7	270	0.00	30.227 
04:05	6.0	6.0	6.0	68	-2.3	2	9	248	0.00	30.229 
04:10	6.0	6.0	6.0	67	-2.6	1	5	248	0.00	30.228 
04:15	6.1	6.1	6.1	67	-2.5	2	9	270	0.00	30.227 
04:20	6.1	6.1	6.1	67	-2.5	2	7	270	0.00	30.228 
04:25	6.1	6.1	6.1	67	-2.5	1	3	270	0.00	30.228 
04:30	6.3	6.3	6.3	66	-2.6	1	4	248	0.00	30.229 
04:35	6.5	6.5	6.5	66	-2.4	1	5	248	0.00	30.231 
04:40	6.7	6.7	6.7	65	-2.5	1	4	248	0.00	30.230 
04:45	6.9	6.9	6.9	65	-2.3	2	5	248	0.00	30.229 
04:50	6.9	6.9	6.9	64	-2.7	2	7	248	0.00	30.229 
04:55	7.2	7.2	7.2	63	-2.7	2	9	248	0.00	30.228 
05:00	7.4	7.4	7.4	63	-2.5	2	6	248	0.00	30.229 
05:05	7.4	7.4	7.4	63	-2.5	1	3	248	0.00	30.231 
05:10	7.6	7.6	7.6	62	-2.7	2	9	248	0.00	30.231 
05:15	7.6	7.6	7.6	62	-2.7	1	7	248	0.00	30.231 
05:20	7.7	7.7	7.7	61	-2.9	2	7	248	0.00	30.233 
05:25	7.7	7.7	7.7	61	-2.9	2	7	270	0.00	30.236 
05:30	7.9	7.9	7.9	61	-2.7	1	5	270	0.00	30.241 
05:35	7.9	7.9	7.9	60	-3.1	1	9	270	0.00	30.242 
05:40	8.1	8.1	8.1	60	-2.9	2	7	248	0.00	30.244 
05:45	8.1	8.1	8.1	60	-2.9	2	6	248	0.00	30.244 
05:50	8.3	8.3	8.3	61	-2.3	1	5	248	0.00	30.243 
05:55	8.1	8.1	8.1	60	-2.9	3	7	248	0.00	30.244 
06:00	8.1	8.1	8.1	62	-2.2	2	5	270	0.00	30.244 
06:05	8.1	8.1	8.1	62	-2.2	1	5	270	0.00	30.243 
06:10	8.1	8.1	8.1	62	-2.2	1	4	248	0.00	30.244 
06:15	8.3	8.3	8.3	62	-2.0	1	4	248	0.00	30.246 
06:20	8.3	8.3	8.3	62	-2.0	1	5	248	0.00	30.245 
06:25	8.4	8.4	8.4	61	-2.2	2	6	248	0.00	30.246 
06:30	8.6	8.6	8.6	60	-2.4	2	6	248	0.00	30.246 
06:35	8.6	8.6	8.6	60	-2.4	1	7	248	0.00	30.246 
06:40	9.0	9.0	9.0	59	-2.4	2	6	248	0.00	30.247 
06:45	9.2	9.2	9.2	58	-2.5	2	6	248	0.00	30.247 
06:50	9.2	9.2	9.2	58	-2.5	1	5	248	0.00	30.247 
06:55	9.3	9.3	9.3	58	-2.4	1	6	248	0.00	30.247 
07:00	9.5	9.5	9.5	59	-1.9	2	6	248	0.00	30.246 
07:05	9.7	9.7	9.7	59	-1.7	1	5	270	0.00	30.248 
07:10	9.7	9.7	9.7	59	-1.7	2	6	248	0.00	30.246 
07:15	9.7	9.7	9.7	59	-1.7	1	5	248	0.00	30.247 
07:20	9.9	9.9	9.9	59	-1.5	2	7	248	0.00	30.248 
07:25	9.9	9.9	9.9	59	-1.5	2	7	248	0.00	30.247 
07:30	10.0	10.0	10.0	59	-1.4	2	8	248	0.00	30.247 
07:35	10.0	10.0	10.0	59	-1.4	2	7	270	0.00	30.247 
07:40	10.2	10.2	10.2	59	-1.2	1	5	270	0.00	30.248 
07:45	10.2	10.2	10.2	59	-1.2	2	7	248	0.00	30.249 
07:50	10.2	10.2	10.2	59	-1.2	3	6	248	0.00	30.250 
07:55	10.4	10.4	10.4	59	-1.1	2	6	248	0.00	30.253 
08:00	10.4	10.4	10.4	59	-1.1	1	5	248	0.00	30.260 
08:05	10.5	10.5	10.5	60	-0.6	1	4	248	0.00	30.262 
08:10	10.7	10.7	10.7	60	-0.4	1	5	270	0.00	30.263 
08:15	10.7	10.7	10.7	60	-0.4	2	6	270	0.00	30.263 
08:20	10.7	10.7	10.7	60	-0.4	1	5	270	0.00	30.265 
08:25	10.7	10.7	10.7	61	-0.1	1	4	248	0.00	30.264 
08:30	10.9	10.9	10.9	61	0.1	2	7	248	0.00	30.265 
08:35	10.9	10.9	10.9	61	0.1	2	6	248	0.00	30.266 
08:40	11.1	11.1	11.1	60	-0.0	2	7	248	0.00	30.266 
08:45	11.1	11.1	11.1	60	-0.0	2	7	270	0.00	30.267 
08:50	11.2	11.2	11.2	61	0.4	1	6	248	0.00	30.268 
08:55	11.6	11.6	11.6	61	0.8	1	6	248	0.00	30.270 
09:00	11.7	11.7	11.7	60	0.5	1	7	248	0.00	30.267 
09:05	11.7	11.7	11.7	60	0.5	2	7	248	0.00	30.272 
09:10	11.9	11.9	11.9	59	0.4	2	7	270	0.00	30.266 
09:15	12.1	12.1	12.1	60	0.9	2	5	270	0.00	30.268 
09:20	12.4	12.4	12.4	60	1.2	1	5	248	0.00	30.268 
09:25	12.8	12.8	12.8	60	1.6	1	4	270	0.00	30.266 
09:30	13.1	13.1	13.1	60	1.9	2	5	248	0.00	30.267 
09:35	13.5	13.5	13.5	61	2.6	1	6	248	0.00	30.262 
09:40	13.8	13.8	13.8	61	2.9	2	5	248	0.00	30.261 
09:45	14.0	14.0	14.0	61	3.1	2	9	270	0.00	30.262 
09:50	14.3	14.3	14.3	61	3.3	2	5	248	0.00	30.262 
09:55	14.4	14.4	14.4	60	3.1	3	7	270	0.00	30.260 
10:00	14.8	14.8	14.8	60	3.5	2	7	270	0.00	30.260 
10:05	15.1	15.1	15.1	59	3.4	2	7	270	0.00	30.261 
10:10	15.2	15.2	15.2	58	3.1	2	7	248	0.00	30.258 
10:15	15.6	15.6	15.6	57	3.1	3	12	270	0.00	30.258 
10:20	15.7	15.7	15.7	57	3.2	3	12	270	0.00	30.258 
10:25	16.2	16.2	16.2	57	3.7	3	7	248	0.00	30.259 
10:30	16.5	16.5	16.5	57	4.0	3	7	248	0.00	30.254 
10:35	17.0	17.0	17.0	54	3.3	3	9	270	0.00	30.257 
10:40	17.3	11.1	17.3	53	3.1	4	12	270	0.00	30.258 
10:45	17.5	17.5	17.5	54	3.7	3	9	270	0.00	30.256 
10:50	18.0	18.0	18.0	55	4.6	1	4	248	0.00	30.257 
10:55	18.4	18.4	18.4	54	4.6	2	5	248	0.00	30.255 
11:00	18.8	18.8	18.8	54	4.9	3	8	270	0.00	30.254 
11:05	18.9	12.9	18.9	55	5.4	4	13	248	0.00	30.259 
11:10	18.8	11.6	18.8	55	5.3	5	12	270	0.00	30.259 
11:15	18.8	18.8	18.8	55	5.3	3	9	270	0.00	30.257 
11:20	18.9	18.9	18.9	55	5.4	3	10	270	0.00	30.258 
11:25	19.1	19.1	19.1	57	6.4	3	9	270	0.00	30.260 
11:30	19.1	13.2	19.1	55	5.6	4	13	270	0.00	30.261 
11:35	19.1	11.9	19.1	55	5.6	5	11	270	0.00	30.258 
11:40	19.2	12.0	19.2	54	5.3	5	13	270	0.00	30.259 
11:45	19.4	13.5	19.4	54	5.5	4	12	270	0.00	30.257 
11:50	19.7	13.9	19.7	54	5.8	4	7	270	0.00	30.256 
11:55	19.7	13.9	19.7	54	5.8	4	12	270	0.00	30.255 
12:00	20.0	20.0	20.0	53	5.7	3	7	270	0.00	30.251 
12:05	20.2	14.4	20.2	54	6.2	4	12	270	0.00	30.257 
12:10	20.2	13.2	20.2	53	5.8	5	13	270	0.00	30.257 
12:15	20.3	20.3	20.3	53	5.9	3	9	270	0.00	30.257 
12:20	20.5	20.5	20.5	52	5.7	3	7	270	0.00	30.253 
12:25	20.6	14.9	20.6	51	5.4	4	12	270	0.00	30.250 
12:30	20.8	20.8	20.8	54	6.8	3	9	270	0.00	30.246 
12:35	21.3	21.3	21.3	52	6.4	3	6	248	0.00	30.247 
12:40	21.3	15.7	21.3	51	6.0	4	12	270	0.00	30.242 
12:45	21.6	21.6	21.6	50	5.9	3	12	270	0.00	30.244 
12:50	21.6	16.1	21.6	51	6.3	4	10	270	0.00	30.240 
12:55	21.8	16.3	21.8	50	6.1	4	12	270	0.00	30.239 
13:00	21.8	16.3	21.8	50	6.1	4	10	270	0.00	30.234 
13:05	22.2	22.2	22.2	50	6.4	3	7	270	0.00	30.229 
13:10	22.4	17.0	22.4	50	6.6	4	10	270	0.00	30.230 
13:15	22.7	22.7	22.7	50	6.9	3	10	270	0.00	30.226 
13:20	23.0	23.0	23.0	51	7.6	2	6	248	0.00	30.225 
13:25	23.0	17.7	23.0	48	6.3	4	11	270	0.00	30.223 
13:30	22.9	17.6	22.9	48	6.2	4	8	270	0.00	30.219 
13:35	23.0	23.0	23.0	49	6.7	3	9	270	0.00	30.218 
13:40	23.5	23.5	23.5	49	7.2	2	9	248	0.00	30.211 
13:45	23.6	18.4	23.6	49	7.3	4	10	248	0.00	30.205 
13:50	23.9	23.9	23.9	49	7.6	2	5	270	0.00	30.205 
13:55	24.1	24.1	24.1	48	7.3	2	5	248	0.00	30.203 
14:00	24.4	24.4	24.4	48	7.6	2	5	270	0.00	30.200 
14:05	24.2	24.2	24.2	47	6.9	3	7	270	0.00	30.199 
14:10	24.5	24.5	24.5	49	8.1	2	5	248	0.00	30.200 
14:15	24.5	24.5	24.5	48	7.7	2	3	248	0.00	30.198 
14:20	24.7	24.7	24.7	47	7.4	2	5	248	0.00	30.202 
14:25	24.8	24.8	24.8	47	7.5	2	5	248	0.00	30.202 
14:30	24.8	24.8	24.8	48	7.9	2	9	270	0.00	30.201 
14:35	25.0	25.0	25.0	48	8.1	1	4	248	0.00	30.200 
14:40	25.0	25.0	25.0	48	8.1	2	9	270	0.00	30.196 
14:45	25.1	25.1	25.1	49	8.7	1	3	248	0.00	30.197 
14:50	25.3	25.3	25.3	47	7.9	2	5	270	0.00	30.202 
14:55	25.1	25.1	25.1	48	8.2	2	5	270	0.00	30.203 
15:00	24.8	24.8	24.8	46	7.0	2	6	270	0.00	30.204 
15:05	24.8	24.8	24.8	48	7.9	1	3	248	0.00	30.206 
15:10	24.8	24.8	24.8	48	7.9	1	4	292	0.00	30.206 
15:15	24.8	24.8	24.8	49	8.4	2	7	248	0.00	30.206 
15:20	24.8	24.8	24.8	47	7.5	3	6	248	0.00	30.206 
15:25	24.8	24.8	24.8	47	7.5	3	6	248	0.00	30.206 
15:30	24.8	24.8	24.8	48	7.9	2	4	270	0.00	30.204 
15:35	24.8	24.8	24.8	48	7.9	2	6	248	0.00	30.204 
15:40	24.8	24.8	24.8	47	7.5	2	6	248	0.00	30.201 
15:45	25.0	25.0	25.0	49	8.6	1	4	248	0.00	30.198 
15:50	25.1	25.1	25.1	47	7.7	2	5	248	0.00	30.198 
15:55	25.3	25.3	25.3	48	8.4	1	4	248	0.00	30.200 
16:00	25.3	25.3	25.3	46	7.4	2	7	248	0.00	30.202 
16:05	25.4	25.4	25.4	47	8.0	1	4	225	0.00	30.200 
16:10	25.4	25.4	25.4	49	8.9	2	6	248	0.00	30.202 
16:15	25.3	25.3	25.3	48	8.4	2	6	248	0.00	30.203 
16:20	25.4	25.4	25.4	48	8.5	1	3	248	0.00	30.202 
16:25	25.4	25.4	25.4	47	8.0	2	5	270	0.00	30.202 
16:30	25.4	25.4	25.4	47	8.0	3	9	248	0.00	30.204 
16:35	25.3	25.3	25.3	47	7.9	3	5	248	0.00	30.204 
16:40	25.4	25.4	25.4	48	8.5	2	7	248	0.00	30.204 
16:45	25.4	25.4	25.4	49	8.9	2	5	248	0.00	30.203 
16:50	25.4	25.4	25.4	48	8.5	3	6	248	0.00	30.202 
16:55	25.4	25.4	25.4	49	8.9	2	6	248	0.00	30.202 
17:00	25.4	25.4	25.4	49	8.9	2	9	248	0.00	30.203 
17:05	25.4	25.4	25.4	49	8.9	2	7	248	0.00	30.207 
17:10	25.4	25.4	25.4	48	8.5	2	5	248	0.00	30.207 
17:15	25.4	25.4	25.4	49	8.9	2	6	248	0.00	30.206 
17:20	25.4	25.4	25.4	51	9.8	2	6	248	0.00	30.209 
17:25	25.3	25.3	25.3	53	10.6	1	3	248	0.00	30.213 
17:30	25.3	25.3	25.3	53	10.6	1	3	248	0.00	30.215 
17:35	25.1	25.1	25.1	54	10.8	2	6	270	0.00	30.211 
17:40	25.1	25.1	25.1	54	10.8	1	4	248	0.00	30.208 
17:45	25.0	25.0	25.0	54	10.7	2	4	248	0.00	30.212 
17:50	25.0	25.0	25.0	54	10.7	1	3	248	0.00	30.213 
17:55	24.8	24.8	24.8	54	10.5	1	4	248	0.00	30.213 
18:00	24.8	24.8	24.8	55	11.0	1	4	248	0.00	30.212 
18:05	24.8	24.8	24.8	55	11.0	1	4	248	0.00	30.209 
18:10	24.7	24.7	24.7	54	10.5	2	6	248	0.00	30.210 
18:15	24.7	24.7	24.7	56	11.3	1	3	270	0.00	30.214 
18:20	24.7	24.7	24.7	55	10.9	1	7	248	0.00	30.214 
18:25	24.7	24.7	24.7	55	10.9	1	5	248	0.00	30.215 
18:30	24.7	24.7	24.7	56	11.3	1	4	248	0.00	30.215 
18:35	24.7	24.7	24.7	56	11.3	1	5	248	0.00	30.216 
18:40	24.7	24.7	24.7	56	11.3	1	4	248	0.00	30.215 
18:45	24.7	24.7	24.7	57	11.7	1	3	248	0.00	30.216 
18:50	24.7	24.7	24.7	56	11.3	2	4	248	0.00	30.215 
18:55	24.7	24.7	24.7	57	11.7	1	5	248	0.00	30.216 
19:00	24.7	24.7	24.7	57	11.7	1	4	248	0.00	30.216 
19:05	24.8	24.8	24.8	58	12.1	1	4	248	0.00	30.217 
19:10	24.8	24.8	24.8	57	11.8	1	5	225	0.00	30.219 
19:15	24.8	24.8	24.8	58	12.1	2	4	248	0.00	30.221 
19:20	24.8	24.8	24.8	58	12.1	1	4	248	0.00	30.227 
19:25	24.8	24.8	24.8	59	12.5	1	4	248	0.00	30.229 
19:30	24.8	24.8	24.8	60	12.9	2	6	248	0.00	30.227 
19:35	24.8	24.8	24.8	59	12.5	1	4	248	0.00	30.222 
19:40	24.8	24.8	24.8	59	12.5	2	6	248	0.00	30.218 
19:45	24.8	24.8	24.8	60	12.9	1	2	248	0.00	30.216 
19:50	24.8	24.8	24.8	60	12.9	2	5	248	0.00	30.215 
19:55	25.0	25.0	25.0	60	13.1	2	5	248	0.00	30.215 
20:00	25.0	25.0	25.0	60	13.1	1	5	248	0.00	30.215 
20:05	25.0	25.0	25.0	60	13.1	2	5	248	0.00	30.213 
20:10	25.1	25.1	25.1	60	13.2	2	5	248	0.00	30.214 
20:15	25.1	25.1	25.1	61	13.6	1	4	248	0.00	30.214 
20:20	25.1	25.1	25.1	60	13.2	2	5	248	0.00	30.215 
20:25	25.3	25.3	25.3	59	13.0	2	5	248	0.00	30.215 
20:30	25.3	25.3	25.3	59	13.0	2	5	248	0.00	30.215 
20:35	25.3	25.3	25.3	59	13.0	2	7	248	0.00	30.215 
20:40	25.4	25.4	25.4	58	12.7	2	6	248	0.00	30.217 
20:45	25.4	25.4	25.4	58	12.7	1	5	248	0.00	30.216 
20:50	25.6	25.6	25.6	58	12.9	2	6	248	0.00	30.213 
20:55	25.6	25.6	25.6	58	12.9	2	9	248	0.00	30.217 
21:00	25.6	25.6	25.6	58	12.9	2	5	248	0.00	30.215 
21:05	25.7	25.7	25.7	58	13.0	2	5	248	0.00	30.215 
21:10	25.7	25.7	25.7	58	13.0	3	7	248	0.00	30.215 
21:15	25.7	25.7	25.7	58	13.0	2	5	248	0.00	30.219 
21:20	25.7	25.7	25.7	58	13.0	2	5	248	0.00	30.220 
21:25	25.7	25.7	25.7	58	13.0	1	4	248	0.00	30.223 
21:30	25.7	25.7	25.7	58	13.0	2	4	248	0.00	30.223 
21:35	25.8	25.8	25.8	58	13.1	2	6	248	0.00	30.224 
21:40	25.8	25.8	25.8	59	13.5	2	5	248	0.00	30.223 
21:45	25.8	25.8	25.8	59	13.5	2	4	248	0.00	30.225 
21:50	25.7	25.7	25.7	59	13.4	2	5	248	0.00	30.226 
21:55	25.7	25.7	25.7	60	13.8	2	3	248	0.00	30.225 
22:00	25.7	25.7	25.7	60	13.8	1	3	248	0.00	30.226 
22:05	25.7	25.7	25.7	60	13.8	1	4	248	0.00	30.222 
22:10	25.8	25.8	25.8	60	13.9	2	5	248	0.00	30.225 
22:15	25.8	25.8	25.8	60	13.9	2	4	248	0.00	30.226 
22:20	25.8	25.8	25.8	60	13.9	2	5	248	0.00	30.227 
22:25	25.8	25.8	25.8	60	13.9	2	5	248	0.00	30.231 
22:30	26.0	26.0	26.0	60	14.0	2	5	248	0.00	30.228 
22:35	26.0	26.0	26.0	60	14.0	2	5	248	0.00	30.226 
22:40	26.0	26.0	26.0	61	14.4	2	4	248	0.00	30.224 
22:45	26.1	26.1	26.1	59	13.8	2	7	248	0.00	30.222 
22:50	26.1	26.1	26.1	59	13.8	2	6	248	0.00	30.222 
22:55	26.3	26.3	26.3	59	13.9	2	7	248	0.00	30.220 
23:00	26.3	26.3	26.3	59	13.9	1	4	270	0.00	30.221 
23:05	26.4	26.4	26.4	58	13.7	2	4	248	0.00	30.218 
23:10	26.4	26.4	26.4	58	13.7	1	4	248	0.00	30.219 
23:15	26.4	26.4	26.4	58	13.7	2	5	248	0.00	30.220 
23:20	26.6	26.6	26.6	58	13.8	2	6	248	0.00	30.220 
23:25	26.7	26.7	26.7	58	13.9	2	6	248	0.00	30.221 
23:30	26.7	26.7	26.7	58	13.9	2	6	248	0.00	30.217 
23:35	26.9	26.9	26.9	57	13.7	2	5	248	0.00	30.218 
23:40	26.9	26.9	26.9	57	13.7	2	4	248	0.00	30.219 
23:45	27.0	27.0	27.0	57	13.8	2	6	248	0.00	30.219 
23:50	27.0	27.0	27.0	57	13.8	2	4	248	0.00	30.220 
23:55	27.0	27.0	27.0	57	13.8	2	6	248	0.00	30.223 

CoCoRaHS
IN-AL-39
A2 Web Hosting
Creative Commons License
GoDaddy
Look for:

loaded 2017-10-17 00:18:55 • last modified 2010-11-18 10:43:29
Privacy PolicyDisclaimer
• wx.awcolley.com is powered by PmWiki v.2002016 •
• all content (unless otherwise noted) © 2017 A W Colley